createdAt,value
2022-07-27T00:01:50.935Z,98278.31
2022-07-27T00:06:55.631Z,98267.63
2022-07-27T00:12:00.942Z,98264.75
2022-07-27T00:17:05.276Z,98274.53
2022-07-27T00:22:09.222Z,98257.06
2022-07-27T00:27:14.776Z,98253.91
2022-07-27T00:32:18.952Z,98254.13
2022-07-27T00:37:22.857Z,98266.53
2022-07-27T00:42:28.436Z,98260.09
2022-07-27T00:47:32.619Z,98259.06
2022-07-27T00:52:38.015Z,98258.00
2022-07-27T00:57:58.435Z,98258.34
2022-07-27T01:03:09.606Z,98260.75
2022-07-27T01:08:15.380Z,98267.59
2022-07-27T01:13:21.119Z,98267.47
2022-07-27T01:18:31.673Z,98260.63
2022-07-27T01:23:37.426Z,98264.47
2022-07-27T01:28:44.799Z,98258.88
2022-07-27T01:33:48.737Z,98250.53
2022-07-27T01:38:54.434Z,98244.28
2022-07-27T01:43:58.578Z,98245.78
2022-07-27T01:49:03.071Z,98243.13
2022-07-27T01:54:08.973Z,98241.97
2022-07-27T01:59:16.997Z,98233.28
2022-07-27T02:04:23.514Z,98232.16
2022-07-27T02:09:29.733Z,98226.94
2022-07-27T02:14:33.876Z,98226.84
2022-07-27T02:19:38.125Z,98231.78
2022-07-27T02:24:43.436Z,98228.00
2022-07-27T02:29:47.490Z,98234.25
2022-07-27T02:34:51.539Z,98224.06
2022-07-27T02:39:56.816Z,98231.75
2022-07-27T02:45:01.996Z,98230.91
2022-07-27T02:50:07.576Z,98228.81
2022-07-27T02:55:13.792Z,98236.56
2022-07-27T03:00:18.285Z,98239.63
2022-07-27T03:05:22.776Z,98245.13
2022-07-27T03:10:28.785Z,98243.63
2022-07-27T03:15:34.761Z,98245.25
2022-07-27T03:20:38.657Z,98247.97
2022-07-27T03:25:44.722Z,98242.31
2022-07-27T03:30:48.926Z,98246.19
2022-07-27T03:35:52.991Z,98242.66
2022-07-27T03:40:58.413Z,98241.09
2022-07-27T03:46:02.728Z,98238.28
2022-07-27T03:51:06.756Z,98245.09
2022-07-27T03:56:12.185Z,98234.66
2022-07-27T04:01:17.516Z,98240.59
2022-07-27T04:06:21.986Z,98246.19
2022-07-27T04:11:29.111Z,98248.44
2022-07-27T04:16:36.279Z,98253.75
2022-07-27T04:21:42.712Z,98263.94
2022-07-27T04:26:48.550Z,98269.69
2022-07-27T04:31:53.177Z,98268.97
2022-07-27T04:36:57.149Z,98266.03
2022-07-27T04:42:02.917Z,98263.13
2022-07-27T04:47:07.181Z,98270.28
2022-07-27T04:52:11.124Z,98265.47
2022-07-27T04:57:16.485Z,98271.84
2022-07-27T05:02:20.488Z,98265.47
2022-07-27T05:07:24.499Z,98271.63
2022-07-27T05:12:29.855Z,98265.22
2022-07-27T05:17:34.033Z,98280.84
2022-07-27T05:22:40.113Z,98282.16
2022-07-27T05:27:53.838Z,98281.19
2022-07-27T05:32:58.944Z,98280.91
2022-07-27T05:38:02.993Z,98285.09
2022-07-27T05:43:08.574Z,98280.09
2022-07-27T05:48:13.037Z,98291.69
2022-07-27T05:53:17.259Z,98298.50
2022-07-27T05:58:23.144Z,98298.06
2022-07-27T06:03:28.974Z,98294.78
2022-07-27T06:08:34.432Z,98295.75
2022-07-27T06:13:41.967Z,98288.34
2022-07-27T06:18:47.495Z,98296.34
2022-07-27T06:23:51.936Z,98294.34
2022-07-27T06:28:59.149Z,98288.50
2022-07-27T06:34:08.196Z,98289.34
2022-07-27T06:39:16.281Z,98286.31
2022-07-27T06:44:22.561Z,98289.16
2022-07-27T06:49:26.787Z,98287.41
2022-07-27T06:54:30.861Z,98293.31
2022-07-27T06:59:43.479Z,98287.13
2022-07-27T07:04:48.016Z,98293.66
2022-07-27T07:09:52.547Z,98291.13
2022-07-27T07:14:58.151Z,98296.47
2022-07-27T07:20:05.134Z,98301.25
2022-07-27T07:25:10.145Z,98299.47
2022-07-27T07:30:16.335Z,98302.78
2022-07-27T07:35:20.801Z,98298.63
2022-07-27T07:40:42.755Z,98300.00
2022-07-27T07:45:51.335Z,98304.19
2022-07-27T07:50:56.670Z,98306.66
2022-07-27T07:56:00.997Z,98311.03
2022-07-27T08:01:06.694Z,98306.19
2022-07-27T08:06:10.947Z,98305.34
2022-07-27T08:11:15.333Z,98297.75
2022-07-27T08:16:21.110Z,98298.91
2022-07-27T08:21:26.275Z,98293.25
2022-07-27T08:26:33.521Z,98296.69
2022-07-27T08:31:53.000Z,98303.66
2022-07-27T08:36:58.886Z,98304.75
2022-07-27T08:42:05.152Z,98303.59
2022-07-27T08:47:11.733Z,98304.63
2022-07-27T08:52:17.350Z,98298.22
2022-07-27T08:57:22.084Z,98305.13
2022-07-27T09:02:28.329Z,98304.44
2022-07-27T09:07:32.461Z,98305.63
2022-07-27T09:12:37.081Z,98296.13
2022-07-27T09:17:49.312Z,98293.75
2022-07-27T09:22:55.691Z,98298.25
2022-07-27T09:28:01.115Z,98298.00
2022-07-27T09:33:08.499Z,98285.56
2022-07-27T09:38:19.888Z,98301.94
2022-07-27T09:48:50.181Z,98294.03
2022-07-27T09:53:55.015Z,98296.03
2022-07-27T09:59:01.018Z,98294.03
2022-07-27T10:04:08.659Z,98284.72
2022-07-27T10:09:12.860Z,98281.47
2022-07-27T10:14:17.967Z,98282.97
2022-07-27T10:19:28.150Z,98287.06
2022-07-27T10:24:35.070Z,98285.47
2022-07-27T10:29:40.290Z,98280.09
2022-07-27T10:34:46.040Z,98287.91
2022-07-27T10:40:13.640Z,98286.31
2022-07-27T10:45:19.591Z,98289.13
2022-07-27T10:50:33.380Z,98289.94
2022-07-27T10:55:59.392Z,98284.69
2022-07-27T11:01:05.157Z,98285.03
2022-07-27T11:11:40.265Z,98291.66
2022-07-27T11:16:55.314Z,98283.88
2022-07-27T11:22:04.751Z,98283.97
2022-07-27T11:27:16.885Z,98278.00
2022-07-27T11:32:23.538Z,98285.84
2022-07-27T11:37:29.087Z,98290.94
2022-07-27T11:42:39.173Z,98277.94
2022-07-27T11:47:44.976Z,98281.97
2022-07-27T11:53:02.041Z,98284.25
2022-07-27T11:58:06.366Z,98291.00
2022-07-27T12:03:21.625Z,98272.38
2022-07-27T12:08:30.388Z,98279.53
2022-07-27T12:13:35.099Z,98263.34
2022-07-27T12:18:45.921Z,98261.19
2022-07-27T12:23:55.879Z,98269.38
2022-07-27T12:29:11.176Z,98261.84
2022-07-27T12:34:16.370Z,98264.38
2022-07-27T12:39:33.082Z,98261.34
2022-07-27T12:44:38.767Z,98248.06
2022-07-27T12:49:46.572Z,98256.97
2022-07-27T12:54:53.181Z,98249.28
2022-07-27T12:59:57.933Z,98258.78
2022-07-27T13:05:02.019Z,98253.63
2022-07-27T13:10:10.728Z,98256.78
2022-07-27T13:15:16.867Z,98259.06
2022-07-27T13:20:21.133Z,98250.97
2022-07-27T13:25:26.785Z,98258.66
2022-07-27T13:30:31.693Z,98252.47
2022-07-27T13:35:36.547Z,98262.50
2022-07-27T13:40:42.121Z,98239.34
2022-07-27T13:45:46.304Z,98242.75
2022-07-27T13:50:50.281Z,98230.47
2022-07-27T13:55:57.225Z,98238.81
2022-07-27T14:01:07.123Z,98234.75
2022-07-27T14:06:11.775Z,98249.03
2022-07-27T14:11:17.817Z,98247.66
2022-07-27T14:16:22.333Z,98252.81
2022-07-27T14:21:26.407Z,98253.78
2022-07-27T14:26:32.173Z,98245.00
2022-07-27T14:31:36.883Z,98246.13
2022-07-27T14:36:40.915Z,98254.09
2022-07-27T14:41:47.054Z,98251.50
2022-07-27T14:46:51.618Z,98254.78
2022-07-27T14:51:55.822Z,98242.69
2022-07-27T14:57:01.622Z,98234.63
2022-07-27T15:02:06.595Z,98235.63
2022-07-27T15:07:10.577Z,98241.53
2022-07-27T15:12:16.135Z,98235.75
2022-07-27T15:17:21.157Z,98248.97
2022-07-27T15:22:26.348Z,98253.47
2022-07-27T15:27:31.800Z,98241.97
2022-07-27T15:32:36.401Z,98248.50
2022-07-27T15:37:40.753Z,98247.88
2022-07-27T15:43:03.092Z,98238.38
2022-07-27T15:48:08.677Z,98257.47
2022-07-27T15:53:14.950Z,98260.28
2022-07-27T15:58:21.121Z,98271.16
2022-07-27T16:03:25.906Z,98269.44
2022-07-27T16:08:31.403Z,98281.25
2022-07-27T16:13:37.936Z,98277.78
2022-07-27T16:18:42.030Z,98290.06
2022-07-27T16:23:46.167Z,98284.34
2022-07-27T16:28:53.992Z,98296.38
2022-07-27T16:33:59.829Z,98298.72
2022-07-27T16:39:03.840Z,98297.66
2022-07-27T16:44:09.290Z,98303.63
2022-07-27T16:49:14.337Z,98308.69
2022-07-27T16:54:18.819Z,98313.16
2022-07-27T16:59:25.498Z,98313.53
2022-07-27T17:04:29.608Z,98307.72
2022-07-27T17:09:34.122Z,98320.44
2022-07-27T17:14:40.192Z,98324.75
2022-07-27T17:19:45.604Z,98340.88
2022-07-27T17:24:50.196Z,98342.53
2022-07-27T17:29:56.219Z,98354.72
2022-07-27T17:35:00.117Z,98345.88
2022-07-27T17:40:04.675Z,98354.84
2022-07-27T17:45:11.322Z,98366.47
2022-07-27T17:50:15.507Z,98368.09
2022-07-27T17:55:19.760Z,98366.94
2022-07-27T18:00:25.262Z,98364.13
2022-07-27T18:05:29.381Z,98359.41
2022-07-27T18:10:38.416Z,98371.56
2022-07-27T18:15:50.753Z,98379.94
2022-07-27T18:20:58.097Z,98377.72
2022-07-27T18:26:04.246Z,98375.63
2022-07-27T18:31:15.426Z,98382.53
2022-07-27T18:36:21.181Z,98390.25
2022-07-27T18:41:25.496Z,98392.91
2022-07-27T18:46:31.085Z,98391.81
2022-07-27T18:51:35.877Z,98399.94
2022-07-27T18:56:43.837Z,98396.09
2022-07-27T19:01:50.016Z,98402.06
2022-07-27T19:06:54.396Z,98411.63
2022-07-27T19:11:58.491Z,98410.13
2022-07-27T19:17:03.999Z,98410.53
2022-07-27T19:22:10.005Z,98422.28
2022-07-27T19:27:14.295Z,98444.88
2022-07-27T19:32:20.546Z,98448.34
2022-07-27T19:37:26.924Z,98444.59
2022-07-27T19:42:31.626Z,98455.66
2022-07-27T19:47:37.263Z,98454.72
2022-07-27T19:52:42.496Z,98482.44
2022-07-27T19:57:46.527Z,98518.88
2022-07-27T20:02:52.218Z,98520.50
2022-07-27T20:07:56.628Z,98493.09
2022-07-27T20:13:02.390Z,98491.09
2022-07-27T20:18:08.347Z,98509.84
2022-07-27T20:23:12.380Z,98508.44
2022-07-27T20:28:16.505Z,98505.25
2022-07-27T20:33:23.175Z,98506.53
2022-07-27T20:38:27.296Z,98497.69
2022-07-27T20:43:32.313Z,98493.50
2022-07-27T20:48:38.012Z,98517.78
2022-07-27T20:53:42.408Z,98509.28
2022-07-27T20:58:48.364Z,98510.97
2022-07-27T21:03:54.089Z,98518.22
2022-07-27T21:08:58.173Z,98522.41
2022-07-27T21:14:02.435Z,98531.22
2022-07-27T21:19:07.983Z,98550.28
2022-07-27T21:24:18.785Z,98559.66
2022-07-27T21:29:23.739Z,98561.09
2022-07-27T21:34:29.274Z,98571.28
2022-07-27T21:39:33.263Z,98563.69
2022-07-27T21:44:37.639Z,98561.59
2022-07-27T21:49:43.266Z,98557.75
2022-07-27T21:54:47.133Z,98570.56
2022-07-27T21:59:52.898Z,98584.63
2022-07-27T22:04:58.471Z,98589.41
2022-07-27T22:10:02.332Z,98583.50
2022-07-27T22:15:07.294Z,98573.25
2022-07-27T22:20:14.688Z,98581.41
2022-07-27T22:25:20.218Z,98583.50
2022-07-27T22:30:24.197Z,98571.06
2022-07-27T22:35:31.153Z,98576.38
2022-07-27T22:40:35.152Z,98591.97
2022-07-27T22:45:39.671Z,98583.50
2022-07-27T22:50:45.506Z,98576.75
2022-07-27T22:55:49.976Z,98580.00
2022-07-27T23:00:59.088Z,98575.59
2022-07-27T23:06:05.205Z,98567.63
2022-07-27T23:11:09.587Z,98570.75
2022-07-27T23:16:13.931Z,98570.94
2022-07-27T23:21:19.266Z,98584.78
2022-07-27T23:26:26.038Z,98590.41
2022-07-27T23:31:31.675Z,98590.91
2022-07-27T23:36:37.421Z,98595.84
2022-07-27T23:41:42.706Z,98594.34
2022-07-27T23:46:50.544Z,98585.28
2022-07-27T23:51:56.069Z,98577.78
2022-07-27T23:57:00.884Z,98584.06
